# Tabular Observed and Forecast Hydrograph Information
#
# Location: Sacramento River - Verona (VONC1)
#
# File Generation Time: 08/31/2026 at 07:40 AM PDT
# Data Interval: 1 Hour
#
# Most Recent Date & Time of Maximum Observed: 08/28/2026 at 01:00 AM PDT
# Maximum Observed Stage: 16.55 Feet
# Maximum Observed Flow: 17557 cfs
#
# Earliest Date & Time of Maximum Forecast: 08/31/2026 at 08:00 PM PDT
# Maximum Forecast Stage: 16.44 Feet
# Maximum Forecast Flow: 17328 cfs
#
# OBSERVED
#
# Date & Time (Local) Stage (Feet) Flow (cfs) Trend Observed Status
# ---------------------------------------------------------------------------------
08/26/2026 07 AM PDT 16.43 17308 Normal
08/26/2026 08 AM PDT 16.44 17328 + Normal
08/26/2026 09 AM PDT 16.45 17349 + Normal
08/26/2026 10 AM PDT 16.44 17328 - Normal
08/26/2026 11 AM PDT 16.45 17349 + Normal
08/26/2026 12 PM PDT 16.44 17328 - Normal
08/26/2026 01 PM PDT 16.45 17349 + Normal
08/26/2026 02 PM PDT 16.45 17349 0 Normal
08/26/2026 03 PM PDT 16.45 17349 0 Normal
08/26/2026 04 PM PDT 16.43 17308 - Normal
08/26/2026 05 PM PDT 16.43 17308 0 Normal
08/26/2026 06 PM PDT 16.42 17287 - Normal
08/26/2026 07 PM PDT 16.42 17287 0 Normal
08/26/2026 08 PM PDT 16.42 17287 0 Normal
08/26/2026 09 PM PDT 16.42 17287 0 Normal
08/26/2026 10 PM PDT 16.42 17287 0 Normal
08/26/2026 11 PM PDT 16.43 17308 + Normal
08/27/2026 12 AM PDT 16.45 17349 + Normal
08/27/2026 01 AM PDT 16.46 17370 + Normal
08/27/2026 02 AM PDT 16.47 17391 + Normal
08/27/2026 03 AM PDT 16.48 17411 + Normal
08/27/2026 04 AM PDT 16.49 17432 + Normal
08/27/2026 05 AM PDT 16.51 17474 + Normal
08/27/2026 06 AM PDT 16.51 17474 0 Normal
08/27/2026 07 AM PDT 16.52 17494 + Normal
08/27/2026 08 AM PDT 16.52 17494 0 Normal
08/27/2026 09 AM PDT 16.52 17494 0 Normal
08/27/2026 10 AM PDT 16.51 17474 - Normal
08/27/2026 11 AM PDT 16.51 17474 0 Normal
08/27/2026 12 PM PDT 16.50 17453 - Normal
08/27/2026 01 PM PDT 16.50 17453 0 Normal
08/27/2026 02 PM PDT 16.50 17453 0 Normal
08/27/2026 03 PM PDT 16.49 17432 - Normal
08/27/2026 04 PM PDT 16.50 17453 + Normal
08/27/2026 05 PM PDT 16.50 17453 0 Normal
08/27/2026 06 PM PDT 16.51 17474 + Normal
08/27/2026 07 PM PDT 16.52 17494 + Normal
08/27/2026 08 PM PDT 16.53 17515 + Normal
08/27/2026 09 PM PDT 16.53 17515 0 Normal
08/27/2026 10 PM PDT 16.54 17536 + Normal
08/27/2026 11 PM PDT 16.55 17557 + Normal
08/28/2026 12 AM PDT 16.55 17557 0 Normal
08/28/2026 01 AM PDT 16.55 17557 0 Normal
08/28/2026 02 AM PDT 16.54 17536 - Normal
08/28/2026 03 AM PDT 16.53 17515 - Normal
08/28/2026 04 AM PDT 16.52 17494 - Normal
08/28/2026 05 AM PDT 16.52 17494 0 Normal
08/28/2026 06 AM PDT 16.51 17474 - Normal
08/28/2026 07 AM PDT 16.50 17453 - Normal
08/28/2026 08 AM PDT 16.50 17453 0 Normal
08/28/2026 09 AM PDT 16.49 17432 - Normal
08/28/2026 10 AM PDT 16.49 17432 0 Normal
08/28/2026 11 AM PDT 16.49 17432 0 Normal
08/28/2026 12 PM PDT 16.50 17453 + Normal
08/28/2026 01 PM PDT 16.50 17453 0 Normal
08/28/2026 02 PM PDT 16.51 17474 + Normal
08/28/2026 03 PM PDT 16.49 17432 - Normal
08/28/2026 04 PM PDT 16.49 17432 0 Normal
08/28/2026 05 PM PDT 16.49 17432 0 Normal
08/28/2026 06 PM PDT 16.48 17411 - Normal
08/28/2026 07 PM PDT 16.48 17411 0 Normal
08/28/2026 08 PM PDT 16.47 17391 - Normal
08/28/2026 09 PM PDT 16.47 17391 0 Normal
08/28/2026 10 PM PDT 16.47 17391 0 Normal
08/28/2026 11 PM PDT 16.47 17391 0 Normal
08/29/2026 12 AM PDT 16.46 17370 - Normal
08/29/2026 01 AM PDT 16.45 17349 - Normal
08/29/2026 02 AM PDT 16.44 17328 - Normal
08/29/2026 03 AM PDT 16.43 17308 - Normal
08/29/2026 04 AM PDT 16.42 17287 - Normal
08/29/2026 05 AM PDT 16.42 17287 0 Normal
08/29/2026 06 AM PDT 16.41 17266 - Normal
08/29/2026 07 AM PDT 16.39 17225 - Normal
08/29/2026 08 AM PDT 16.39 17225 0 Normal
08/29/2026 09 AM PDT 16.38 17204 - Normal
08/29/2026 10 AM PDT 16.39 17225 + Normal
08/29/2026 11 AM PDT 16.40 17245 + Normal
08/29/2026 12 PM PDT 16.40 17245 0 Normal
08/29/2026 01 PM PDT 16.42 17287 + Normal
08/29/2026 02 PM PDT 16.44 17328 + Normal
08/29/2026 03 PM PDT 16.44 17328 0 Normal
08/29/2026 04 PM PDT 16.45 17349 + Normal
08/29/2026 05 PM PDT 16.45 17349 0 Normal
08/29/2026 06 PM PDT 16.45 17349 0 Normal
08/29/2026 07 PM PDT 16.46 17370 + Normal
08/29/2026 08 PM PDT 16.46 17370 0 Normal
08/29/2026 09 PM PDT 16.47 17391 + Normal
08/29/2026 10 PM PDT 16.47 17391 0 Normal
08/29/2026 11 PM PDT 16.48 17411 + Normal
08/30/2026 12 AM PDT 16.47 17391 - Normal
08/30/2026 01 AM PDT 16.47 17391 0 Normal
08/30/2026 02 AM PDT 16.47 17391 0 Normal
08/30/2026 03 AM PDT 16.46 17370 - Normal
08/30/2026 04 AM PDT 16.46 17370 0 Normal
08/30/2026 05 AM PDT 16.45 17349 - Normal
08/30/2026 06 AM PDT 16.44 17328 - Normal
08/30/2026 07 AM PDT 16.42 17287 - Normal
08/30/2026 08 AM PDT 16.42 17287 0 Normal
08/30/2026 09 AM PDT 16.40 17245 - Normal
08/30/2026 10 AM PDT 16.40 17245 0 Normal
08/30/2026 11 AM PDT 16.41 17266 + Normal
08/30/2026 12 PM PDT 16.41 17266 0 Normal
08/30/2026 01 PM PDT 16.43 17308 + Normal
08/30/2026 02 PM PDT 16.43 17308 0 Normal
08/30/2026 03 PM PDT 16.43 17308 0 Normal
08/30/2026 04 PM PDT 16.42 17287 - Normal
08/30/2026 05 PM PDT 16.43 17308 + Normal
08/30/2026 06 PM PDT 16.42 17287 - Normal
08/30/2026 07 PM PDT 16.43 17308 + Normal
08/30/2026 08 PM PDT 16.43 17308 0 Normal
08/30/2026 09 PM PDT 16.43 17308 0 Normal
08/30/2026 10 PM PDT 16.43 17308 0 Normal
08/30/2026 11 PM PDT 16.43 17308 0 Normal
08/31/2026 12 AM PDT 16.43 17308 0 Normal
08/31/2026 01 AM PDT 16.43 17308 0 Normal
08/31/2026 02 AM PDT 16.42 17287 - Normal
08/31/2026 03 AM PDT 16.42 17287 0 Normal
08/31/2026 04 AM PDT 16.41 17266 - Normal
08/31/2026 05 AM PDT 16.41 17266 0 Normal
08/31/2026 06 AM PDT 16.41 17266 0 Normal
08/31/2026 07 AM PDT 16.41 17266 0 Normal
#
# FORECAST
#
# Date & Time (Local) Stage (Feet) Flow (cfs) Trend Forecast Status
# ---------------------------------------------------------------------------------
08/31/2026 08 AM PDT 16.41 17266 Normal
08/31/2026 09 AM PDT 16.41 17266 0 Normal
08/31/2026 10 AM PDT 16.41 17266 0 Normal
08/31/2026 11 AM PDT 16.41 17266 0 Normal
08/31/2026 12 PM PDT 16.41 17266 0 Normal
08/31/2026 01 PM PDT 16.41 17266 0 Normal
08/31/2026 02 PM PDT 16.41 17266 0 Normal
08/31/2026 03 PM PDT 16.41 17266 0 Normal
08/31/2026 04 PM PDT 16.41 17266 0 Normal
08/31/2026 05 PM PDT 16.41 17266 0 Normal
08/31/2026 06 PM PDT 16.43 17308 + Normal
08/31/2026 07 PM PDT 16.43 17308 0 Normal
08/31/2026 08 PM PDT 16.44 17328 + Normal
08/31/2026 09 PM PDT 16.44 17328 0 Normal
08/31/2026 10 PM PDT 16.44 17328 0 Normal
08/31/2026 11 PM PDT 16.44 17328 0 Normal
09/01/2026 12 AM PDT 16.44 17328 0 Normal
09/01/2026 01 AM PDT 16.44 17328 0 Normal
09/01/2026 02 AM PDT 16.44 17328 0 Normal
09/01/2026 03 AM PDT 16.44 17328 0 Normal
09/01/2026 04 AM PDT 16.44 17328 0 Normal
09/01/2026 05 AM PDT 16.44 17328 0 Normal
09/01/2026 06 AM PDT 16.44 17328 0 Normal
09/01/2026 07 AM PDT 16.44 17328 0 Normal
09/01/2026 08 AM PDT 16.44 17328 0 Normal
09/01/2026 09 AM PDT 16.44 17328 0 Normal
09/01/2026 10 AM PDT 16.44 17328 0 Normal
09/01/2026 11 AM PDT 16.43 17308 - Normal
09/01/2026 12 PM PDT 16.43 17308 0 Normal
09/01/2026 01 PM PDT 16.43 17308 0 Normal
09/01/2026 02 PM PDT 16.43 17308 0 Normal
09/01/2026 03 PM PDT 16.43 17308 0 Normal
09/01/2026 04 PM PDT 16.43 17308 0 Normal
09/01/2026 05 PM PDT 16.42 17287 - Normal
09/01/2026 06 PM PDT 16.43 17308 + Normal
09/01/2026 07 PM PDT 16.43 17308 0 Normal
09/01/2026 08 PM PDT 16.43 17308 0 Normal
09/01/2026 09 PM PDT 16.43 17308 0 Normal
09/01/2026 10 PM PDT 16.42 17287 - Normal
09/01/2026 11 PM PDT 16.42 17287 0 Normal
09/02/2026 12 AM PDT 16.41 17266 - Normal
09/02/2026 01 AM PDT 16.41 17266 0 Normal
09/02/2026 02 AM PDT 16.41 17266 0 Normal
09/02/2026 03 AM PDT 16.40 17245 - Normal
09/02/2026 04 AM PDT 16.40 17245 0 Normal
09/02/2026 05 AM PDT 16.39 17225 - Normal
09/02/2026 06 AM PDT 16.39 17225 0 Normal
09/02/2026 07 AM PDT 16.39 17225 0 Normal
09/02/2026 08 AM PDT 16.38 17204 - Normal
09/02/2026 09 AM PDT 16.38 17204 0 Normal
09/02/2026 10 AM PDT 16.37 17183 - Normal
09/02/2026 11 AM PDT 16.37 17183 0 Normal
09/02/2026 12 PM PDT 16.36 17163 - Normal
09/02/2026 01 PM PDT 16.36 17163 0 Normal
09/02/2026 02 PM PDT 16.35 17142 - Normal
09/02/2026 03 PM PDT 16.35 17142 0 Normal
09/02/2026 04 PM PDT 16.34 17121 - Normal
09/02/2026 05 PM PDT 16.34 17121 0 Normal
09/02/2026 06 PM PDT 16.34 17121 0 Normal
09/02/2026 07 PM PDT 16.34 17121 0 Normal
09/02/2026 08 PM PDT 16.33 17101 - Normal
09/02/2026 09 PM PDT 16.33 17101 0 Normal
09/02/2026 10 PM PDT 16.32 17080 - Normal
09/02/2026 11 PM PDT 16.31 17059 - Normal
09/03/2026 12 AM PDT 16.31 17059 0 Normal
09/03/2026 01 AM PDT 16.30 17039 - Normal
09/03/2026 02 AM PDT 16.30 17039 0 Normal
09/03/2026 03 AM PDT 16.29 17018 - Normal
09/03/2026 04 AM PDT 16.29 17018 0 Normal
09/03/2026 05 AM PDT 16.28 16997 - Normal
09/03/2026 06 AM PDT 16.27 16977 - Normal
09/03/2026 07 AM PDT 16.27 16977 0 Normal
09/03/2026 08 AM PDT 16.27 16977 0 Normal
09/03/2026 09 AM PDT 16.26 16956 - Normal
09/03/2026 10 AM PDT 16.26 16956 0 Normal
09/03/2026 11 AM PDT 16.25 16935 - Normal
09/03/2026 12 PM PDT 16.25 16935 0 Normal
09/03/2026 01 PM PDT 16.25 16935 0 Normal
09/03/2026 02 PM PDT 16.24 16915 - Normal
09/03/2026 03 PM PDT 16.24 16915 0 Normal
09/03/2026 04 PM PDT 16.23 16894 - Normal
09/03/2026 05 PM PDT 16.23 16894 0 Normal
09/03/2026 06 PM PDT 16.24 16915 + Normal
09/03/2026 07 PM PDT 16.24 16915 0 Normal
09/03/2026 08 PM PDT 16.24 16915 0 Normal
09/03/2026 09 PM PDT 16.23 16894 - Normal
09/03/2026 10 PM PDT 16.23 16894 0 Normal
09/03/2026 11 PM PDT 16.23 16894 0 Normal
09/04/2026 12 AM PDT 16.23 16894 0 Normal
09/04/2026 01 AM PDT 16.23 16894 0 Normal
09/04/2026 02 AM PDT 16.22 16874 - Normal
09/04/2026 03 AM PDT 16.22 16874 0 Normal
09/04/2026 04 AM PDT 16.22 16874 0 Normal
09/04/2026 05 AM PDT 16.22 16874 0 Normal
09/04/2026 06 AM PDT 16.22 16874 0 Normal
09/04/2026 07 AM PDT 16.22 16874 0 Normal
09/04/2026 08 AM PDT 16.22 16874 0 Normal
09/04/2026 09 AM PDT 16.21 16853 - Normal
09/04/2026 10 AM PDT 16.21 16853 0 Normal
09/04/2026 11 AM PDT 16.21 16853 0 Normal
09/04/2026 12 PM PDT 16.21 16853 0 Normal
09/04/2026 01 PM PDT 16.21 16853 0 Normal
09/04/2026 02 PM PDT 16.21 16853 0 Normal
09/04/2026 03 PM PDT 16.21 16853 0 Normal
09/04/2026 04 PM PDT 16.21 16853 0 Normal
09/04/2026 05 PM PDT 16.21 16853 0 Normal
09/04/2026 06 PM PDT 16.22 16874 + Normal
09/04/2026 07 PM PDT 16.22 16874 0 Normal
09/04/2026 08 PM PDT 16.22 16874 0 Normal
09/04/2026 09 PM PDT 16.22 16874 0 Normal
09/04/2026 10 PM PDT 16.22 16874 0 Normal
09/04/2026 11 PM PDT 16.22 16874 0 Normal
09/05/2026 12 AM PDT 16.22 16874 0 Normal
09/05/2026 01 AM PDT 16.22 16874 0 Normal
09/05/2026 02 AM PDT 16.22 16874 0 Normal
09/05/2026 03 AM PDT 16.22 16874 0 Normal
09/05/2026 04 AM PDT 16.22 16874 0 Normal
09/05/2026 05 AM PDT 16.23 16894 + Normal
#
# NOTE 1: Stages are rounded to the nearest hundredth (.01) of a foot.
# NOTE 2: Flows are rounded to the nearest (1) cfs.
# NOTE 3: Trends are determined using hourly change in unrounded stage and flow.
# NOTE 4: Maximum Values are determined using unrounded stage and flow.
|